sensor_id;sensor_type;location;lat;lon;timestamp;temperature;humidity
37322;DHT22;23697;48.684;9.032;2023-04-24T00:02:16;9.60;87.00
37322;DHT22;23697;48.684;9.032;2023-04-24T00:04:44;9.50;86.90
37322;DHT22;23697;48.684;9.032;2023-04-24T00:07:10;9.60;87.00
37322;DHT22;23697;48.684;9.032;2023-04-24T00:09:38;9.60;87.00
37322;DHT22;23697;48.684;9.032;2023-04-24T00:12:04;9.60;87.00
37322;DHT22;23697;48.684;9.032;2023-04-24T00:14:31;9.60;87.00
37322;DHT22;23697;48.684;9.032;2023-04-24T00:16:59;9.50;87.00
37322;DHT22;23697;48.684;9.032;2023-04-24T00:19:26;9.60;86.90
37322;DHT22;23697;48.684;9.032;2023-04-24T00:21:53;9.60;86.80
37322;DHT22;23697;48.684;9.032;2023-04-24T00:24:20;9.60;86.70
37322;DHT22;23697;48.684;9.032;2023-04-24T00:26:47;9.60;86.80
37322;DHT22;23697;48.684;9.032;2023-04-24T00:29:13;9.60;86.80
37322;DHT22;23697;48.684;9.032;2023-04-24T00:31:40;9.60;86.70
37322;DHT22;23697;48.684;9.032;2023-04-24T00:34:08;9.60;86.70
37322;DHT22;23697;48.684;9.032;2023-04-24T00:36:35;9.60;86.70
37322;DHT22;23697;48.684;9.032;2023-04-24T00:39:02;9.60;86.60
37322;DHT22;23697;48.684;9.032;2023-04-24T00:41:29;9.60;86.50
37322;DHT22;23697;48.684;9.032;2023-04-24T00:43:56;9.60;86.60
37322;DHT22;23697;48.684;9.032;2023-04-24T00:46:22;9.60;86.60
37322;DHT22;23697;48.684;9.032;2023-04-24T00:48:49;9.70;86.60
37322;DHT22;23697;48.684;9.032;2023-04-24T00:51:18;9.60;86.60
37322;DHT22;23697;48.684;9.032;2023-04-24T00:53:45;9.70;86.50
37322;DHT22;23697;48.684;9.032;2023-04-24T00:56:11;9.70;86.20
37322;DHT22;23697;48.684;9.032;2023-04-24T00:58:38;9.70;86.20
37322;DHT22;23697;48.684;9.032;2023-04-24T01:01:07;9.70;86.10
37322;DHT22;23697;48.684;9.032;2023-04-24T01:03:33;9.60;86.10
37322;DHT22;23697;48.684;9.032;2023-04-24T01:06:02;9.70;86.10
37322;DHT22;23697;48.684;9.032;2023-04-24T01:08:30;9.70;86.00
37322;DHT22;23697;48.684;9.032;2023-04-24T01:10:57;9.70;86.10
37322;DHT22;23697;48.684;9.032;2023-04-24T01:13:24;9.70;86.00
37322;DHT22;23697;48.684;9.032;2023-04-24T01:15:50;9.70;86.00
37322;DHT22;23697;48.684;9.032;2023-04-24T01:18:17;9.80;86.00
37322;DHT22;23697;48.684;9.032;2023-04-24T01:20:44;9.80;85.90
37322;DHT22;23697;48.684;9.032;2023-04-24T01:23:13;9.80;86.00
37322;DHT22;23697;48.684;9.032;2023-04-24T01:25:40;9.70;85.90
37322;DHT22;23697;48.684;9.032;2023-04-24T01:28:07;9.80;85.90
37322;DHT22;23697;48.684;9.032;2023-04-24T01:30:34;9.70;85.90
37322;DHT22;23697;48.684;9.032;2023-04-24T01:33:01;9.70;85.90
37322;DHT22;23697;48.684;9.032;2023-04-24T01:35:27;9.70;85.90
37322;DHT22;23697;48.684;9.032;2023-04-24T01:37:54;9.70;85.90
37322;DHT22;23697;48.684;9.032;2023-04-24T01:40:22;9.70;85.80
37322;DHT22;23697;48.684;9.032;2023-04-24T01:42:49;9.70;85.90
37322;DHT22;23697;48.684;9.032;2023-04-24T01:45:15;9.70;86.10
37322;DHT22;23697;48.684;9.032;2023-04-24T01:47:42;9.70;86.30
37322;DHT22;23697;48.684;9.032;2023-04-24T01:50:09;9.60;86.30
37322;DHT22;23697;48.684;9.032;2023-04-24T01:52:36;9.60;86.50
37322;DHT22;23697;48.684;9.032;2023-04-24T01:55:03;9.60;86.60
37322;DHT22;23697;48.684;9.032;2023-04-24T01:57:32;9.60;86.80
37322;DHT22;23697;48.684;9.032;2023-04-24T01:59:59;9.60;86.90
37322;DHT22;23697;48.684;9.032;2023-04-24T02:02:26;9.60;87.00
37322;DHT22;23697;48.684;9.032;2023-04-24T02:04:54;9.60;87.10
37322;DHT22;23697;48.684;9.032;2023-04-24T02:07:20;9.60;87.20
37322;DHT22;23697;48.684;9.032;2023-04-24T02:09:47;9.60;87.30
37322;DHT22;23697;48.684;9.032;2023-04-24T02:12:14;9.50;87.30
37322;DHT22;23697;48.684;9.032;2023-04-24T02:14:42;9.60;87.30
37322;DHT22;23697;48.684;9.032;2023-04-24T02:17:08;9.60;87.20
37322;DHT22;23697;48.684;9.032;2023-04-24T02:19:38;9.40;87.20
37322;DHT22;23697;48.684;9.032;2023-04-24T02:22:05;9.40;87.30
37322;DHT22;23697;48.684;9.032;2023-04-24T02:24:32;9.50;87.30
37322;DHT22;23697;48.684;9.032;2023-04-24T02:26:58;9.40;87.30
37322;DHT22;23697;48.684;9.032;2023-04-24T02:29:25;9.40;87.40
37322;DHT22;23697;48.684;9.032;2023-04-24T02:31:53;9.40;87.40
37322;DHT22;23697;48.684;9.032;2023-04-24T02:34:20;9.50;87.50
37322;DHT22;23697;48.684;9.032;2023-04-24T02:36:47;9.40;87.50
37322;DHT22;23697;48.684;9.032;2023-04-24T02:39:14;9.50;87.50
37322;DHT22;23697;48.684;9.032;2023-04-24T02:41:42;9.50;87.50
37322;DHT22;23697;48.684;9.032;2023-04-24T02:44:08;9.50;87.50
37322;DHT22;23697;48.684;9.032;2023-04-24T02:46:35;9.40;87.40
37322;DHT22;23697;48.684;9.032;2023-04-24T02:49:03;9.50;87.40
37322;DHT22;23697;48.684;9.032;2023-04-24T02:51:30;9.50;87.40
37322;DHT22;23697;48.684;9.032;2023-04-24T02:53:56;9.50;87.30
37322;DHT22;23697;48.684;9.032;2023-04-24T02:56:23;9.50;87.30
37322;DHT22;23697;48.684;9.032;2023-04-24T02:58:50;9.50;87.50
37322;DHT22;23697;48.684;9.032;2023-04-24T03:01:16;9.50;87.50
37322;DHT22;23697;48.684;9.032;2023-04-24T03:03:43;9.40;87.60
37322;DHT22;23697;48.684;9.032;2023-04-24T03:06:11;9.40;87.70
37322;DHT22;23697;48.684;9.032;2023-04-24T03:08:38;9.50;87.80
37322;DHT22;23697;48.684;9.032;2023-04-24T03:11:05;9.40;87.90
37322;DHT22;23697;48.684;9.032;2023-04-24T03:13:31;9.40;88.00
37322;DHT22;23697;48.684;9.032;2023-04-24T03:15:58;9.30;88.00
37322;DHT22;23697;48.684;9.032;2023-04-24T03:18:25;9.30;88.10
37322;DHT22;23697;48.684;9.032;2023-04-24T03:20:51;9.30;88.20
37322;DHT22;23697;48.684;9.032;2023-04-24T03:23:19;9.20;88.20
37322;DHT22;23697;48.684;9.032;2023-04-24T03:25:46;9.10;88.20
37322;DHT22;23697;48.684;9.032;2023-04-24T03:28:13;9.20;88.30
37322;DHT22;23697;48.684;9.032;2023-04-24T03:30:40;9.20;88.30
37322;DHT22;23697;48.684;9.032;2023-04-24T03:33:07;9.20;88.30
37322;DHT22;23697;48.684;9.032;2023-04-24T03:35:35;9.10;88.20
37322;DHT22;23697;48.684;9.032;2023-04-24T03:38:01;9.10;88.30
37322;DHT22;23697;48.684;9.032;2023-04-24T03:40:30;9.10;88.30
37322;DHT22;23697;48.684;9.032;2023-04-24T03:42:58;9.10;88.30
37322;DHT22;23697;48.684;9.032;2023-04-24T03:45:25;9.00;88.30
37322;DHT22;23697;48.684;9.032;2023-04-24T03:47:52;9.00;88.30
37322;DHT22;23697;48.684;9.032;2023-04-24T03:50:18;8.90;88.30
37322;DHT22;23697;48.684;9.032;2023-04-24T03:52:45;8.90;88.40
37322;DHT22;23697;48.684;9.032;2023-04-24T03:55:12;8.90;88.30
37322;DHT22;23697;48.684;9.032;2023-04-24T03:57:40;8.90;88.30
37322;DHT22;23697;48.684;9.032;2023-04-24T04:00:08;8.90;88.40
37322;DHT22;23697;48.684;9.032;2023-04-24T04:02:35;8.90;88.40
37322;DHT22;23697;48.684;9.032;2023-04-24T04:05:01;8.90;88.40
37322;DHT22;23697;48.684;9.032;2023-04-24T04:07:28;8.90;88.50
37322;DHT22;23697;48.684;9.032;2023-04-24T04:09:55;8.90;88.50
37322;DHT22;23697;48.684;9.032;2023-04-24T04:12:21;9.00;88.40
37322;DHT22;23697;48.684;9.032;2023-04-24T04:14:49;9.00;88.40
37322;DHT22;23697;48.684;9.032;2023-04-24T04:17:16;9.00;88.30
37322;DHT22;23697;48.684;9.032;2023-04-24T04:19:43;9.10;88.20
37322;DHT22;23697;48.684;9.032;2023-04-24T04:22:10;9.00;88.20
37322;DHT22;23697;48.684;9.032;2023-04-24T04:24:36;9.00;88.20
37322;DHT22;23697;48.684;9.032;2023-04-24T04:27:05;9.10;88.30
37322;DHT22;23697;48.684;9.032;2023-04-24T04:29:33;9.10;88.40
37322;DHT22;23697;48.684;9.032;2023-04-24T04:32:01;9.10;88.50
37322;DHT22;23697;48.684;9.032;2023-04-24T04:34:28;8.90;88.10
37322;DHT22;23697;48.684;9.032;2023-04-24T04:36:55;8.60;87.80
37322;DHT22;23697;48.684;9.032;2023-04-24T04:39:21;8.50;87.70
37322;DHT22;23697;48.684;9.032;2023-04-24T04:41:48;8.40;87.90
37322;DHT22;23697;48.684;9.032;2023-04-24T04:44:15;8.40;87.90
37322;DHT22;23697;48.684;9.032;2023-04-24T04:46:42;8.30;88.00
37322;DHT22;23697;48.684;9.032;2023-04-24T04:49:10;8.30;88.20
37322;DHT22;23697;48.684;9.032;2023-04-24T04:51:38;8.20;88.00
37322;DHT22;23697;48.684;9.032;2023-04-24T04:54:05;8.20;88.00
37322;DHT22;23697;48.684;9.032;2023-04-24T04:56:31;8.20;88.00
37322;DHT22;23697;48.684;9.032;2023-04-24T04:58:58;8.20;88.20
37322;DHT22;23697;48.684;9.032;2023-04-24T05:01:25;8.20;88.20
37322;DHT22;23697;48.684;9.032;2023-04-24T05:03:52;8.30;88.30
37322;DHT22;23697;48.684;9.032;2023-04-24T05:06:20;8.30;88.40
37322;DHT22;23697;48.684;9.032;2023-04-24T05:08:47;8.30;88.30
37322;DHT22;23697;48.684;9.032;2023-04-24T05:11:14;8.20;88.10
37322;DHT22;23697;48.684;9.032;2023-04-24T05:13:40;8.20;88.10
37322;DHT22;23697;48.684;9.032;2023-04-24T05:16:07;8.30;88.10
37322;DHT22;23697;48.684;9.032;2023-04-24T05:18:34;8.20;88.10
37322;DHT22;23697;48.684;9.032;2023-04-24T05:21:00;8.30;88.10
37322;DHT22;23697;48.684;9.032;2023-04-24T05:23:28;8.30;88.20
37322;DHT22;23697;48.684;9.032;2023-04-24T05:25:55;8.30;88.20
37322;DHT22;23697;48.684;9.032;2023-04-24T05:28:22;8.30;88.20
37322;DHT22;23697;48.684;9.032;2023-04-24T05:30:53;8.40;88.30
37322;DHT22;23697;48.684;9.032;2023-04-24T05:33:20;8.40;88.20
37322;DHT22;23697;48.684;9.032;2023-04-24T05:35:47;8.30;88.10
37322;DHT22;23697;48.684;9.032;2023-04-24T05:38:14;8.40;88.20
37322;DHT22;23697;48.684;9.032;2023-04-24T05:40:44;8.50;88.20
37322;DHT22;23697;48.684;9.032;2023-04-24T05:43:11;8.50;88.20
37322;DHT22;23697;48.684;9.032;2023-04-24T05:45:37;8.50;88.20
37322;DHT22;23697;48.684;9.032;2023-04-24T05:48:04;8.60;88.10
37322;DHT22;23697;48.684;9.032;2023-04-24T05:50:31;8.50;87.80
37322;DHT22;23697;48.684;9.032;2023-04-24T05:52:57;8.50;87.70
37322;DHT22;23697;48.684;9.032;2023-04-24T05:55:24;8.50;87.70
37322;DHT22;23697;48.684;9.032;2023-04-24T05:57:53;8.40;87.50
37322;DHT22;23697;48.684;9.032;2023-04-24T06:00:20;8.40;87.40
37322;DHT22;23697;48.684;9.032;2023-04-24T06:02:56;8.30;87.50
37322;DHT22;23697;48.684;9.032;2023-04-24T06:05:24;8.30;87.30
37322;DHT22;23697;48.684;9.032;2023-04-24T06:07:53;8.30;87.40
37322;DHT22;23697;48.684;9.032;2023-04-24T06:10:26;8.30;87.50
37322;DHT22;23697;48.684;9.032;2023-04-24T06:12:54;8.40;87.60
37322;DHT22;23697;48.684;9.032;2023-04-24T06:15:32;8.50;87.50
37322;DHT22;23697;48.684;9.032;2023-04-24T06:18:10;8.60;87.30
37322;DHT22;23697;48.684;9.032;2023-04-24T06:20:47;8.80;87.00
37322;DHT22;23697;48.684;9.032;2023-04-24T06:23:22;9.00;86.60
37322;DHT22;23697;48.684;9.032;2023-04-24T06:26:02;9.20;86.50
37322;DHT22;23697;48.684;9.032;2023-04-24T06:28:38;9.50;86.50
37322;DHT22;23697;48.684;9.032;2023-04-24T06:31:16;9.70;85.20
37322;DHT22;23697;48.684;9.032;2023-04-24T06:33:53;9.90;84.80
37322;DHT22;23697;48.684;9.032;2023-04-24T06:36:21;10.00;84.90
37322;DHT22;23697;48.684;9.032;2023-04-24T06:38:49;10.00;85.10
37322;DHT22;23697;48.684;9.032;2023-04-24T06:41:19;10.10;84.40
37322;DHT22;23697;48.684;9.032;2023-04-24T06:43:51;10.20;84.10
37322;DHT22;23697;48.684;9.032;2023-04-24T06:46:18;10.50;84.10
37322;DHT22;23697;48.684;9.032;2023-04-24T06:48:47;10.80;83.50
37322;DHT22;23697;48.684;9.032;2023-04-24T06:51:14;11.10;82.20
37322;DHT22;23697;48.684;9.032;2023-04-24T06:53:40;11.20;81.10
37322;DHT22;23697;48.684;9.032;2023-04-24T06:56:07;11.20;80.90
37322;DHT22;23697;48.684;9.032;2023-04-24T06:58:34;11.10;80.90
37322;DHT22;23697;48.684;9.032;2023-04-24T07:01:02;11.10;80.70
37322;DHT22;23697;48.684;9.032;2023-04-24T07:03:28;10.90;81.20
37322;DHT22;23697;48.684;9.032;2023-04-24T07:05:55;10.70;81.00
37322;DHT22;23697;48.684;9.032;2023-04-24T07:08:23;10.50;81.10
37322;DHT22;23697;48.684;9.032;2023-04-24T07:10:50;10.30;79.90
37322;DHT22;23697;48.684;9.032;2023-04-24T07:13:17;10.10;80.50
37322;DHT22;23697;48.684;9.032;2023-04-24T07:15:44;10.00;80.80
37322;DHT22;23697;48.684;9.032;2023-04-24T07:18:12;9.80;80.50
37322;DHT22;23697;48.684;9.032;2023-04-24T07:20:39;9.60;80.90
37322;DHT22;23697;48.684;9.032;2023-04-24T07:23:06;9.60;82.10
37322;DHT22;23697;48.684;9.032;2023-04-24T07:25:32;9.70;82.70
37322;DHT22;23697;48.684;9.032;2023-04-24T07:27:59;9.80;82.50
37322;DHT22;23697;48.684;9.032;2023-04-24T07:30:26;10.00;82.30
37322;DHT22;23697;48.684;9.032;2023-04-24T07:32:54;10.40;81.50
37322;DHT22;23697;48.684;9.032;2023-04-24T07:35:22;10.90;81.30
37322;DHT22;23697;48.684;9.032;2023-04-24T07:37:50;11.50;81.20
37322;DHT22;23697;48.684;9.032;2023-04-24T07:40:17;12.00;78.80
37322;DHT22;23697;48.684;9.032;2023-04-24T07:42:44;12.30;76.70
37322;DHT22;23697;48.684;9.032;2023-04-24T07:45:10;12.40;76.50
37322;DHT22;23697;48.684;9.032;2023-04-24T07:47:37;12.40;72.70
37322;DHT22;23697;48.684;9.032;2023-04-24T07:50:05;12.60;73.80
37322;DHT22;23697;48.684;9.032;2023-04-24T07:52:33;12.50;71.90
37322;DHT22;23697;48.684;9.032;2023-04-24T07:55:00;12.40;71.10
37322;DHT22;23697;48.684;9.032;2023-04-24T07:57:27;12.30;72.10
37322;DHT22;23697;48.684;9.032;2023-04-24T07:59:54;12.30;72.30
37322;DHT22;23697;48.684;9.032;2023-04-24T08:02:21;12.30;72.20
37322;DHT22;23697;48.684;9.032;2023-04-24T08:04:52;12.20;69.90
37322;DHT22;23697;48.684;9.032;2023-04-24T08:07:19;12.10;71.40
37322;DHT22;23697;48.684;9.032;2023-04-24T08:09:47;11.70;70.20
37322;DHT22;23697;48.684;9.032;2023-04-24T08:12:14;11.60;72.60
37322;DHT22;23697;48.684;9.032;2023-04-24T08:14:40;11.50;71.50
37322;DHT22;23697;48.684;9.032;2023-04-24T08:17:07;11.50;71.20
37322;DHT22;23697;48.684;9.032;2023-04-24T08:19:34;11.40;71.60
37322;DHT22;23697;48.684;9.032;2023-04-24T08:22:00;11.60;70.60
37322;DHT22;23697;48.684;9.032;2023-04-24T08:24:27;11.80;70.70
37322;DHT22;23697;48.684;9.032;2023-04-24T08:26:56;12.10;71.70
37322;DHT22;23697;48.684;9.032;2023-04-24T08:29:23;12.40;68.40
37322;DHT22;23697;48.684;9.032;2023-04-24T08:31:50;12.70;67.90
37322;DHT22;23697;48.684;9.032;2023-04-24T08:34:16;13.00;65.60
37322;DHT22;23697;48.684;9.032;2023-04-24T08:36:43;13.30;64.30
37322;DHT22;23697;48.684;9.032;2023-04-24T08:39:10;13.40;64.00
37322;DHT22;23697;48.684;9.032;2023-04-24T08:41:36;12.80;63.60
37322;DHT22;23697;48.684;9.032;2023-04-24T08:44:05;12.50;64.10
37322;DHT22;23697;48.684;9.032;2023-04-24T08:46:32;12.30;65.20
37322;DHT22;23697;48.684;9.032;2023-04-24T08:48:59;11.90;65.30
37322;DHT22;23697;48.684;9.032;2023-04-24T08:51:26;11.70;67.40
37322;DHT22;23697;48.684;9.032;2023-04-24T08:53:53;11.70;66.80
37322;DHT22;23697;48.684;9.032;2023-04-24T08:56:21;11.70;67.10
37322;DHT22;23697;48.684;9.032;2023-04-24T08:58:48;11.60;66.90
37322;DHT22;23697;48.684;9.032;2023-04-24T09:01:17;12.00;66.30
37322;DHT22;23697;48.684;9.032;2023-04-24T09:03:44;12.30;65.40
37322;DHT22;23697;48.684;9.032;2023-04-24T09:06:11;12.30;64.40
37322;DHT22;23697;48.684;9.032;2023-04-24T09:08:37;12.20;65.60
37322;DHT22;23697;48.684;9.032;2023-04-24T09:11:05;12.10;65.70
37322;DHT22;23697;48.684;9.032;2023-04-24T09:13:32;12.10;65.10
37322;DHT22;23697;48.684;9.032;2023-04-24T09:15:59;12.00;64.00
37322;DHT22;23697;48.684;9.032;2023-04-24T09:18:27;11.90;64.90
37322;DHT22;23697;48.684;9.032;2023-04-24T09:20:57;12.60;61.20
37322;DHT22;23697;48.684;9.032;2023-04-24T09:23:26;12.90;60.40
37322;DHT22;23697;48.684;9.032;2023-04-24T09:25:53;13.30;60.40
37322;DHT22;23697;48.684;9.032;2023-04-24T09:28:22;13.00;56.60
37322;DHT22;23697;48.684;9.032;2023-04-24T09:31:07;13.00;58.30
37322;DHT22;23697;48.684;9.032;2023-04-24T09:33:38;13.50;56.70
37322;DHT22;23697;48.684;9.032;2023-04-24T09:36:05;13.90;58.40
37322;DHT22;23697;48.684;9.032;2023-04-24T09:38:32;14.40;54.60
37322;DHT22;23697;48.684;9.032;2023-04-24T09:41:00;14.90;56.90
37322;DHT22;23697;48.684;9.032;2023-04-24T09:43:28;14.80;52.30
37322;DHT22;23697;48.684;9.032;2023-04-24T09:45:55;14.50;53.40
37322;DHT22;23697;48.684;9.032;2023-04-24T09:48:29;14.50;52.80
37322;DHT22;23697;48.684;9.032;2023-04-24T09:50:57;14.20;53.60
37322;DHT22;23697;48.684;9.032;2023-04-24T09:53:24;13.70;50.70
37322;DHT22;23697;48.684;9.032;2023-04-24T09:55:54;13.40;54.60
37322;DHT22;23697;48.684;9.032;2023-04-24T09:58:24;13.10;55.30
37322;DHT22;23697;48.684;9.032;2023-04-24T10:00:53;12.60;55.70
37322;DHT22;23697;48.684;9.032;2023-04-24T10:03:26;12.50;57.50
37322;DHT22;23697;48.684;9.032;2023-04-24T10:06:11;12.80;56.10
37322;DHT22;23697;48.684;9.032;2023-04-24T10:08:38;13.20;54.00
37322;DHT22;23697;48.684;9.032;2023-04-24T10:11:07;13.70;54.20
37322;DHT22;23697;48.684;9.032;2023-04-24T10:13:38;14.00;53.00
37322;DHT22;23697;48.684;9.032;2023-04-24T10:16:05;14.00;53.50
37322;DHT22;23697;48.684;9.032;2023-04-24T10:18:33;14.10;53.60
37322;DHT22;23697;48.684;9.032;2023-04-24T10:21:04;14.10;52.70
37322;DHT22;23697;48.684;9.032;2023-04-24T10:23:31;14.20;51.90
37322;DHT22;23697;48.684;9.032;2023-04-24T10:25:58;14.40;52.40
37322;DHT22;23697;48.684;9.032;2023-04-24T10:28:29;14.30;52.10
37322;DHT22;23697;48.684;9.032;2023-04-24T10:30:57;14.00;51.70
37322;DHT22;23697;48.684;9.032;2023-04-24T10:33:24;13.30;52.00
37322;DHT22;23697;48.684;9.032;2023-04-24T10:35:52;13.30;54.30
37322;DHT22;23697;48.684;9.032;2023-04-24T10:38:23;13.10;55.30
37322;DHT22;23697;48.684;9.032;2023-04-24T10:40:51;13.30;55.20
37322;DHT22;23697;48.684;9.032;2023-04-24T10:43:18;13.50;55.50
37322;DHT22;23697;48.684;9.032;2023-04-24T10:46:00;13.60;55.30
37322;DHT22;23697;48.684;9.032;2023-04-24T10:48:27;13.60;54.20
37322;DHT22;23697;48.684;9.032;2023-04-24T10:50:53;13.50;54.60
37322;DHT22;23697;48.684;9.032;2023-04-24T10:53:24;13.30;54.70
37322;DHT22;23697;48.684;9.032;2023-04-24T10:55:57;13.00;55.10
37322;DHT22;23697;48.684;9.032;2023-04-24T10:58:24;13.00;55.80
37322;DHT22;23697;48.684;9.032;2023-04-24T11:01:01;13.10;56.10
37322;DHT22;23697;48.684;9.032;2023-04-24T11:03:28;13.10;56.10
37322;DHT22;23697;48.684;9.032;2023-04-24T11:05:56;13.20;56.60
37322;DHT22;23697;48.684;9.032;2023-04-24T11:08:25;13.00;57.00
37322;DHT22;23697;48.684;9.032;2023-04-24T11:11:03;13.10;56.40
37322;DHT22;23697;48.684;9.032;2023-04-24T11:16:19;13.10;57.30
37322;DHT22;23697;48.684;9.032;2023-04-24T11:18:50;13.10;56.40
37322;DHT22;23697;48.684;9.032;2023-04-24T11:21:19;12.90;54.60
37322;DHT22;23697;48.684;9.032;2023-04-24T11:23:49;12.80;56.20
37322;DHT22;23697;48.684;9.032;2023-04-24T11:26:17;12.80;55.90
37322;DHT22;23697;48.684;9.032;2023-04-24T11:28:46;12.70;58.30
37322;DHT22;23697;48.684;9.032;2023-04-24T11:33:58;12.00;59.20
37322;DHT22;23697;48.684;9.032;2023-04-24T11:36:32;11.70;60.00
37322;DHT22;23697;48.684;9.032;2023-04-24T11:39:01;11.80;60.60
37322;DHT22;23697;48.684;9.032;2023-04-24T11:41:28;11.80;59.50
37322;DHT22;23697;48.684;9.032;2023-04-24T11:43:54;11.80;59.40
37322;DHT22;23697;48.684;9.032;2023-04-24T11:46:21;11.70;59.50
37322;DHT22;23697;48.684;9.032;2023-04-24T11:48:48;11.70;60.90
37322;DHT22;23697;48.684;9.032;2023-04-24T11:51:15;11.80;61.40
37322;DHT22;23697;48.684;9.032;2023-04-24T11:53:42;12.10;60.70
37322;DHT22;23697;48.684;9.032;2023-04-24T11:56:10;12.30;61.00
37322;DHT22;23697;48.684;9.032;2023-04-24T11:58:37;12.50;58.70
37322;DHT22;23697;48.684;9.032;2023-04-24T12:01:04;12.50;58.60
37322;DHT22;23697;48.684;9.032;2023-04-24T12:03:31;12.30;58.60
37322;DHT22;23697;48.684;9.032;2023-04-24T12:06:04;12.10;58.50
37322;DHT22;23697;48.684;9.032;2023-04-24T12:08:31;11.80;60.10
37322;DHT22;23697;48.684;9.032;2023-04-24T12:10:59;11.50;60.10
37322;DHT22;23697;48.684;9.032;2023-04-24T12:13:28;11.40;61.50
37322;DHT22;23697;48.684;9.032;2023-04-24T12:15:54;11.40;61.70
37322;DHT22;23697;48.684;9.032;2023-04-24T12:18:22;11.60;60.00
37322;DHT22;23697;48.684;9.032;2023-04-24T12:20:48;11.70;59.30
37322;DHT22;23697;48.684;9.032;2023-04-24T12:23:16;11.80;58.60
37322;DHT22;23697;48.684;9.032;2023-04-24T12:25:42;12.10;60.00
37322;DHT22;23697;48.684;9.032;2023-04-24T12:28:10;12.40;59.10
37322;DHT22;23697;48.684;9.032;2023-04-24T12:30:41;12.50;59.20
37322;DHT22;23697;48.684;9.032;2023-04-24T12:33:09;12.80;60.10
37322;DHT22;23697;48.684;9.032;2023-04-24T12:35:36;12.80;57.60
37322;DHT22;23697;48.684;9.032;2023-04-24T12:38:06;12.70;59.40
37322;DHT22;23697;48.684;9.032;2023-04-24T12:40:34;12.60;58.80
37322;DHT22;23697;48.684;9.032;2023-04-24T12:43:00;12.60;59.20
37322;DHT22;23697;48.684;9.032;2023-04-24T12:45:27;12.50;60.00
37322;DHT22;23697;48.684;9.032;2023-04-24T12:48:03;12.10;59.70
37322;DHT22;23697;48.684;9.032;2023-04-24T12:50:30;12.00;61.00
37322;DHT22;23697;48.684;9.032;2023-04-24T12:52:57;11.90;61.00
37322;DHT22;23697;48.684;9.032;2023-04-24T12:55:23;11.70;61.60
37322;DHT22;23697;48.684;9.032;2023-04-24T12:57:50;11.70;62.30
37322;DHT22;23697;48.684;9.032;2023-04-24T13:00:17;11.60;62.30
37322;DHT22;23697;48.684;9.032;2023-04-24T13:02:44;11.60;63.00
37322;DHT22;23697;48.684;9.032;2023-04-24T13:05:12;11.60;63.00
37322;DHT22;23697;48.684;9.032;2023-04-24T13:07:39;11.60;63.90
37322;DHT22;23697;48.684;9.032;2023-04-24T13:10:06;11.60;62.40
37322;DHT22;23697;48.684;9.032;2023-04-24T13:12:34;11.60;62.10
37322;DHT22;23697;48.684;9.032;2023-04-24T13:15:01;11.60;62.30
37322;DHT22;23697;48.684;9.032;2023-04-24T13:17:28;11.70;61.40
37322;DHT22;23697;48.684;9.032;2023-04-24T13:19:54;11.90;62.70
37322;DHT22;23697;48.684;9.032;2023-04-24T13:22:22;11.90;61.80
37322;DHT22;23697;48.684;9.032;2023-04-24T13:24:50;11.80;61.50
37322;DHT22;23697;48.684;9.032;2023-04-24T13:27:17;11.60;63.10
37322;DHT22;23697;48.684;9.032;2023-04-24T13:29:43;11.40;65.10
37322;DHT22;23697;48.684;9.032;2023-04-24T13:32:10;11.10;66.00
37322;DHT22;23697;48.684;9.032;2023-04-24T13:34:37;11.10;65.80
37322;DHT22;23697;48.684;9.032;2023-04-24T13:37:04;10.90;65.30
37322;DHT22;23697;48.684;9.032;2023-04-24T13:39:32;10.80;65.50
37322;DHT22;23697;48.684;9.032;2023-04-24T13:41:59;10.70;66.00
37322;DHT22;23697;48.684;9.032;2023-04-24T13:44:26;10.60;67.30
37322;DHT22;23697;48.684;9.032;2023-04-24T13:46:53;10.50;67.70
37322;DHT22;23697;48.684;9.032;2023-04-24T13:49:22;10.70;67.70
37322;DHT22;23697;48.684;9.032;2023-04-24T13:51:50;11.00;66.70
37322;DHT22;23697;48.684;9.032;2023-04-24T13:54:16;11.20;65.80
37322;DHT22;23697;48.684;9.032;2023-04-24T13:56:44;11.30;64.90
37322;DHT22;23697;48.684;9.032;2023-04-24T13:59:11;11.40;65.60
37322;DHT22;23697;48.684;9.032;2023-04-24T14:01:38;11.50;64.50
37322;DHT22;23697;48.684;9.032;2023-04-24T14:04:05;11.50;65.60
37322;DHT22;23697;48.684;9.032;2023-04-24T14:06:31;11.40;64.60
37322;DHT22;23697;48.684;9.032;2023-04-24T14:08:58;11.20;63.40
37322;DHT22;23697;48.684;9.032;2023-04-24T14:11:25;11.10;64.20
37322;DHT22;23697;48.684;9.032;2023-04-24T14:13:54;10.90;65.00
37322;DHT22;23697;48.684;9.032;2023-04-24T14:16:21;10.90;66.50
37322;DHT22;23697;48.684;9.032;2023-04-24T14:18:48;10.70;70.50
37322;DHT22;23697;48.684;9.032;2023-04-24T14:21:15;10.50;73.30
37322;DHT22;23697;48.684;9.032;2023-04-24T14:23:41;10.30;75.00
37322;DHT22;23697;48.684;9.032;2023-04-24T14:26:09;10.40;76.40
37322;DHT22;23697;48.684;9.032;2023-04-24T14:28:36;10.60;75.60
37322;DHT22;23697;48.684;9.032;2023-04-24T14:31:04;10.70;76.00
37322;DHT22;23697;48.684;9.032;2023-04-24T14:33:30;10.80;75.90
37322;DHT22;23697;48.684;9.032;2023-04-24T14:35:57;10.90;76.90
37322;DHT22;23697;48.684;9.032;2023-04-24T14:38:23;11.10;75.70
37322;DHT22;23697;48.684;9.032;2023-04-24T14:40:50;11.20;75.90
37322;DHT22;23697;48.684;9.032;2023-04-24T14:43:17;11.30;74.00
37322;DHT22;23697;48.684;9.032;2023-04-24T14:45:43;11.30;73.80
37322;DHT22;23697;48.684;9.032;2023-04-24T14:48:11;11.40;72.40
37322;DHT22;23697;48.684;9.032;2023-04-24T14:50:38;11.50;70.10
37322;DHT22;23697;48.684;9.032;2023-04-24T14:53:05;11.70;70.90
37322;DHT22;23697;48.684;9.032;2023-04-24T14:55:31;11.80;69.10
37322;DHT22;23697;48.684;9.032;2023-04-24T14:57:59;11.60;66.40
37322;DHT22;23697;48.684;9.032;2023-04-24T15:00:26;11.30;64.40
37322;DHT22;23697;48.684;9.032;2023-04-24T15:02:53;11.20;65.90
37322;DHT22;23697;48.684;9.032;2023-04-24T15:05:21;11.10;64.70
37322;DHT22;23697;48.684;9.032;2023-04-24T15:07:49;11.00;65.50
37322;DHT22;23697;48.684;9.032;2023-04-24T15:10:16;10.90;65.40
37322;DHT22;23697;48.684;9.032;2023-04-24T15:12:43;10.90;66.50
37322;DHT22;23697;48.684;9.032;2023-04-24T15:15:10;10.80;66.00
37322;DHT22;23697;48.684;9.032;2023-04-24T15:17:37;10.80;65.80
37322;DHT22;23697;48.684;9.032;2023-04-24T15:20:04;10.80;65.70
37322;DHT22;23697;48.684;9.032;2023-04-24T15:22:33;10.70;64.90
37322;DHT22;23697;48.684;9.032;2023-04-24T15:25:00;10.70;66.10
37322;DHT22;23697;48.684;9.032;2023-04-24T15:27:33;10.60;65.40
37322;DHT22;23697;48.684;9.032;2023-04-24T15:30:05;10.50;66.00
37322;DHT22;23697;48.684;9.032;2023-04-24T15:32:32;10.40;65.70
37322;DHT22;23697;48.684;9.032;2023-04-24T15:34:59;10.40;65.40
37322;DHT22;23697;48.684;9.032;2023-04-24T15:37:25;10.30;67.50
37322;DHT22;23697;48.684;9.032;2023-04-24T15:39:53;10.40;66.70
37322;DHT22;23697;48.684;9.032;2023-04-24T15:42:20;10.50;66.40
37322;DHT22;23697;48.684;9.032;2023-04-24T15:44:47;10.70;66.70
37322;DHT22;23697;48.684;9.032;2023-04-24T15:47:13;10.70;65.80